createdAt,value
2023-09-12T00:00:12.936Z,14.20
2023-09-12T00:02:42.212Z,13.35
2023-09-12T00:05:11.479Z,14.13
2023-09-12T00:07:43.629Z,14.75
2023-09-12T00:10:12.957Z,17.75
2023-09-12T00:12:42.488Z,20.98
2023-09-12T00:15:12.155Z,21.45
2023-09-12T00:17:41.450Z,22.05
2023-09-12T00:20:12.277Z,24.30
2023-09-12T00:22:42.800Z,24.42
2023-09-12T00:25:11.879Z,23.42
2023-09-12T00:27:41.076Z,23.83
2023-09-12T00:30:10.998Z,22.48
2023-09-12T00:32:40.405Z,24.33
2023-09-12T00:35:10.028Z,24.10
2023-09-12T00:37:39.137Z,25.20
2023-09-12T00:40:10.816Z,25.30
2023-09-12T00:42:39.984Z,26.63
2023-09-12T00:45:09.858Z,23.77
2023-09-12T00:47:39.643Z,24.75
2023-09-12T00:50:10.193Z,26.77
2023-09-12T00:52:41.682Z,25.88
2023-09-12T00:55:12.880Z,24.98
2023-09-12T00:57:42.672Z,26.42
2023-09-12T01:00:15.899Z,25.95
2023-09-12T01:02:48.089Z,25.77
2023-09-12T01:05:18.137Z,26.50
2023-09-12T01:07:48.266Z,27.40
2023-09-12T01:10:19.114Z,26.77
2023-09-12T01:12:48.892Z,26.42
2023-09-12T01:15:18.144Z,27.48
2023-09-12T01:17:48.244Z,27.55
2023-09-12T01:20:28.078Z,25.83
2023-09-12T01:23:19.083Z,27.02
2023-09-12T01:26:08.059Z,26.25
2023-09-12T01:28:44.994Z,26.10
2023-09-12T01:31:17.994Z,25.92
2023-09-12T01:33:47.263Z,25.77
2023-09-12T01:36:16.739Z,24.85
2023-09-12T01:38:45.914Z,25.75
2023-09-12T01:41:15.540Z,24.20
2023-09-12T01:43:46.864Z,24.92
2023-09-12T01:46:21.217Z,24.35
2023-09-12T01:48:52.602Z,25.80
2023-09-12T01:51:22.507Z,25.30
2023-09-12T01:53:53.144Z,25.58
2023-09-12T01:56:23.162Z,25.10
2023-09-12T01:58:53.736Z,24.88
2023-09-12T02:01:23.143Z,24.25
2023-09-12T02:03:52.320Z,23.92
2023-09-12T02:06:21.525Z,23.88
2023-09-12T02:08:50.707Z,24.50
2023-09-12T02:11:19.801Z,24.23
2023-09-12T02:13:48.893Z,23.95
2023-09-12T02:16:19.796Z,25.30
2023-09-12T02:18:49.467Z,23.30
2023-09-12T02:21:18.677Z,23.73
2023-09-12T02:23:47.839Z,22.73
2023-09-12T02:26:16.991Z,21.30
2023-09-12T02:28:48.034Z,22.55
2023-09-12T02:31:18.833Z,22.23
2023-09-12T02:33:49.984Z,21.98
2023-09-12T02:36:19.129Z,21.35
2023-09-12T02:38:48.323Z,21.35
2023-09-12T02:41:18.136Z,20.95
2023-09-12T02:43:47.308Z,20.42
2023-09-12T02:46:17.806Z,20.73
2023-09-12T02:48:47.121Z,19.73
2023-09-12T02:51:16.331Z,21.92
2023-09-12T02:53:45.442Z,19.98
2023-09-12T02:56:14.821Z,18.88
2023-09-12T02:58:44.105Z,20.60
2023-09-12T03:01:19.116Z,18.45
2023-09-12T03:03:49.102Z,19.90
2023-09-12T03:06:19.514Z,19.38
2023-09-12T03:08:49.246Z,18.90
2023-09-12T03:11:18.403Z,18.40
2023-09-12T03:13:48.545Z,18.30
2023-09-12T03:16:19.299Z,19.13
2023-09-12T03:18:48.453Z,17.65
2023-09-12T03:21:17.734Z,17.80
2023-09-12T03:23:46.932Z,16.05
2023-09-12T03:26:17.173Z,18.80
2023-09-12T03:28:46.296Z,18.60
2023-09-12T03:31:16.705Z,16.42
2023-09-12T03:33:50.690Z,18.58
2023-09-12T03:36:21.088Z,18.83
2023-09-12T03:38:51.245Z,18.52
2023-09-12T03:41:20.597Z,19.25
2023-09-12T03:43:50.220Z,18.23
2023-09-12T03:46:19.440Z,17.30
2023-09-12T03:48:49.965Z,19.75
2023-09-12T03:51:19.649Z,18.73
2023-09-12T03:53:50.920Z,19.25
2023-09-12T03:56:21.033Z,19.58
2023-09-12T03:58:50.277Z,21.23
2023-09-12T04:01:19.509Z,20.70
2023-09-12T04:03:50.264Z,21.88
2023-09-12T04:06:19.536Z,19.38
2023-09-12T04:08:48.690Z,20.20
2023-09-12T04:11:21.313Z,20.08
2023-09-12T04:13:54.450Z,22.02
2023-09-12T04:16:23.750Z,20.33
2023-09-12T04:18:54.367Z,20.33
2023-09-12T04:21:23.643Z,21.35
2023-09-12T04:23:52.806Z,22.10
2023-09-12T04:26:21.931Z,20.17
2023-09-12T04:28:52.179Z,19.25
2023-09-12T04:31:21.362Z,20.08
2023-09-12T04:33:53.880Z,20.50
2023-09-12T04:36:23.052Z,21.10
2023-09-12T04:38:52.216Z,21.27
2023-09-12T04:41:21.876Z,20.85
2023-09-12T04:43:51.197Z,23.23
2023-09-12T04:46:20.389Z,22.63
2023-09-12T04:48:49.728Z,20.42
2023-09-12T04:51:20.274Z,22.85
2023-09-12T04:53:52.977Z,21.00
2023-09-12T04:56:25.473Z,22.10
2023-09-12T04:58:55.431Z,21.15
2023-09-12T05:01:26.934Z,22.23
2023-09-12T05:03:57.205Z,22.05
2023-09-12T05:06:29.186Z,23.08
2023-09-12T05:08:59.617Z,22.60
2023-09-12T05:11:30.202Z,24.88
2023-09-12T05:14:01.023Z,25.02
2023-09-12T05:16:30.735Z,23.67
2023-09-12T05:19:00.089Z,22.20
2023-09-12T05:21:31.177Z,23.08
2023-09-12T05:24:00.472Z,25.75
2023-09-12T05:26:29.829Z,25.17
2023-09-12T05:28:59.054Z,28.02
2023-09-12T05:31:29.465Z,26.70
2023-09-12T05:33:58.798Z,26.63
2023-09-12T05:36:28.100Z,27.08
2023-09-12T05:39:00.540Z,26.63
2023-09-12T05:41:30.152Z,25.42
2023-09-12T05:44:00.378Z,25.02
2023-09-12T05:46:29.555Z,27.58
2023-09-12T05:48:58.740Z,30.33
2023-09-12T05:51:28.029Z,28.10
2023-09-12T05:53:59.630Z,27.23
2023-09-12T05:56:29.578Z,26.05
2023-09-12T05:58:59.079Z,28.27
2023-09-12T06:01:28.845Z,31.83
2023-09-12T06:03:58.526Z,30.55
2023-09-12T06:06:28.206Z,27.90
2023-09-12T06:08:59.255Z,29.33
2023-09-12T06:11:28.953Z,30.17
2023-09-12T06:13:58.071Z,28.45
2023-09-12T06:16:27.705Z,28.17
2023-09-12T06:18:57.023Z,30.48
2023-09-12T06:21:26.846Z,27.95
2023-09-12T06:26:55.592Z,28.13
2023-09-12T06:29:24.925Z,29.20
2023-09-12T06:31:55.884Z,28.77
2023-09-12T06:34:25.279Z,29.85
2023-09-12T06:36:55.255Z,29.45
2023-09-12T06:39:25.556Z,28.73
2023-09-12T06:41:58.752Z,30.00
2023-09-12T06:44:30.179Z,27.90
2023-09-12T06:46:59.512Z,28.55
2023-09-12T06:49:29.397Z,30.45
2023-09-12T06:51:58.919Z,30.48
2023-09-12T06:54:28.729Z,28.38
2023-09-12T06:56:59.435Z,28.83
2023-09-12T06:59:28.845Z,29.20
2023-09-12T07:01:58.799Z,27.17
2023-09-12T07:04:28.834Z,27.95
2023-09-12T07:06:58.242Z,27.48
2023-09-12T07:09:29.250Z,28.67
2023-09-12T07:12:00.833Z,27.50
2023-09-12T07:14:32.711Z,26.67
2023-09-12T07:17:02.711Z,28.25
2023-09-12T07:19:32.104Z,26.25
2023-09-12T07:22:02.431Z,28.33
2023-09-12T07:24:32.393Z,26.92
2023-09-12T07:27:02.969Z,26.88
2023-09-12T07:29:32.110Z,25.55
2023-09-12T07:32:01.755Z,24.98
2023-09-12T07:34:30.839Z,26.58
2023-09-12T07:36:59.877Z,26.95
2023-09-12T07:39:29.266Z,26.85
2023-09-12T07:41:58.432Z,25.92
2023-09-12T07:44:31.164Z,23.90
2023-09-12T07:47:00.272Z,23.80
2023-09-12T07:49:29.335Z,22.83
2023-09-12T07:51:58.912Z,24.17
2023-09-12T07:54:29.129Z,22.52
2023-09-12T07:56:58.264Z,23.50
2023-09-12T07:59:28.756Z,22.67
2023-09-12T08:01:57.871Z,21.27
2023-09-12T08:04:27.004Z,21.55
2023-09-12T08:06:58.477Z,22.08
2023-09-12T08:09:53.328Z,21.30
2023-09-12T08:12:23.792Z,22.38
2023-09-12T08:14:54.603Z,20.48
2023-09-12T08:17:24.192Z,22.27
2023-09-12T08:19:53.313Z,19.25
2023-09-12T08:22:22.455Z,21.15
2023-09-12T08:24:51.606Z,18.60
2023-09-12T08:27:20.826Z,19.25
2023-09-12T08:29:50.005Z,19.17
2023-09-12T08:32:20.494Z,17.13
2023-09-12T08:34:49.838Z,17.73
2023-09-12T08:37:19.080Z,17.27
2023-09-12T08:39:48.474Z,16.42
2023-09-12T08:42:18.625Z,16.88
2023-09-12T08:44:48.190Z,15.88
2023-09-12T08:47:21.504Z,15.60
2023-09-12T08:49:51.307Z,15.63
2023-09-12T08:52:20.404Z,16.65
2023-09-12T08:54:49.528Z,15.02
2023-09-12T08:57:19.086Z,15.48
2023-09-12T08:59:49.393Z,13.40
2023-09-12T09:02:20.494Z,12.68
2023-09-12T09:04:52.900Z,14.52
2023-09-12T09:07:24.263Z,14.23
2023-09-12T09:09:55.168Z,14.45
2023-09-12T09:12:24.462Z,13.73
2023-09-12T09:14:53.565Z,13.55
2023-09-12T09:17:34.798Z,12.23
2023-09-12T09:20:10.171Z,12.85
2023-09-12T09:22:39.250Z,12.60
2023-09-12T09:25:14.466Z,12.73
2023-09-12T09:27:43.822Z,10.95
2023-09-12T09:30:14.113Z,11.23
2023-09-12T09:32:46.594Z,9.98
2023-09-12T09:35:15.924Z,10.75
2023-09-12T09:37:45.719Z,10.23
2023-09-12T09:40:14.855Z,10.95
2023-09-12T09:42:44.442Z,8.52
2023-09-12T09:45:13.553Z,9.48
2023-09-12T09:47:45.932Z,9.65
2023-09-12T09:50:18.211Z,7.80
2023-09-12T09:52:47.678Z,8.27
2023-09-12T09:55:16.988Z,8.18
2023-09-12T09:57:46.164Z,7.47
2023-09-12T10:00:16.443Z,7.10
2023-09-12T10:02:47.745Z,8.18
2023-09-12T10:05:18.385Z,8.50
2023-09-12T10:07:51.305Z,8.57
2023-09-12T10:10:21.123Z,8.20
2023-09-12T10:12:53.817Z,8.00
2023-09-12T10:15:24.068Z,8.32
2023-09-12T10:18:14.376Z,7.13
2023-09-12T10:20:52.926Z,6.55
2023-09-12T10:23:25.665Z,8.82
2023-09-12T10:25:56.941Z,7.78
2023-09-12T10:28:26.863Z,8.10
2023-09-12T10:30:59.772Z,8.13
2023-09-12T10:33:32.483Z,8.02
2023-09-12T10:36:04.868Z,7.72
2023-09-12T10:38:38.364Z,8.60
2023-09-12T10:41:10.386Z,9.18
2023-09-12T10:43:40.896Z,7.22
2023-09-12T10:46:10.591Z,7.90
2023-09-12T10:48:42.429Z,8.43
2023-09-12T10:51:13.630Z,8.52
2023-09-12T10:53:49.732Z,7.63
2023-09-12T10:56:21.237Z,8.00
2023-09-12T10:59:15.909Z,8.95
2023-09-12T11:01:48.144Z,9.40
2023-09-12T11:04:38.547Z,9.18
2023-09-12T11:07:33.754Z,9.75
2023-09-12T11:10:19.737Z,9.75
2023-09-12T11:12:50.675Z,8.68
2023-09-12T11:15:21.253Z,9.07
2023-09-12T11:17:51.689Z,9.90
2023-09-12T11:20:22.250Z,9.38
2023-09-12T11:22:55.186Z,9.32
2023-09-12T11:25:27.260Z,10.32
2023-09-12T11:28:07.089Z,10.48
2023-09-12T11:30:36.346Z,10.45
2023-09-12T11:33:12.362Z,11.38
2023-09-12T11:35:44.500Z,10.75
2023-09-12T11:38:13.744Z,11.60
2023-09-12T11:40:47.724Z,12.02
2023-09-12T11:43:28.059Z,10.68
2023-09-12T11:45:59.101Z,11.02
2023-09-12T11:48:30.823Z,11.15
2023-09-12T11:51:02.551Z,9.93
2023-09-12T11:53:36.339Z,10.80
2023-09-12T11:56:05.745Z,10.63
2023-09-12T11:58:35.828Z,10.75
2023-09-12T12:01:05.401Z,10.48
2023-09-12T12:03:35.332Z,10.93
2023-09-12T12:06:07.567Z,10.50
2023-09-12T12:08:37.662Z,11.02
2023-09-12T12:11:08.700Z,10.98
2023-09-12T12:13:37.845Z,11.10
2023-09-12T12:16:18.059Z,10.50
2023-09-12T12:18:47.391Z,10.15
2023-09-12T12:21:18.042Z,10.15
2023-09-12T12:23:47.096Z,11.10
2023-09-12T12:26:16.242Z,9.52
2023-09-12T12:28:46.091Z,11.00
2023-09-12T12:31:15.875Z,10.63
2023-09-12T12:35:11.491Z,11.60
2023-09-12T12:36:56.607Z,11.00
2023-09-12T12:39:27.353Z,13.00
2023-09-12T12:41:57.108Z,12.18
2023-09-12T12:44:41.286Z,11.98
2023-09-12T12:47:13.062Z,12.88
2023-09-12T12:49:42.254Z,12.15
2023-09-12T12:52:13.712Z,11.40
2023-09-12T12:54:45.310Z,11.43
2023-09-12T12:57:15.924Z,12.55
2023-09-12T12:59:48.198Z,12.80
2023-09-12T13:02:17.526Z,12.40
2023-09-12T13:04:46.802Z,12.23
2023-09-12T13:07:17.314Z,11.85
2023-09-12T13:09:49.156Z,12.75
2023-09-12T13:12:18.843Z,13.32
2023-09-12T13:14:48.296Z,13.10
2023-09-12T13:17:17.421Z,12.60
2023-09-12T13:19:46.726Z,13.52
2023-09-12T13:22:17.193Z,14.48
2023-09-12T13:24:46.345Z,13.75
2023-09-12T13:27:15.544Z,13.73
2023-09-12T13:29:44.616Z,12.50
2023-09-12T13:32:16.460Z,13.32
2023-09-12T13:34:45.650Z,11.90
2023-09-12T13:37:17.888Z,12.85
2023-09-12T13:39:49.891Z,11.68
2023-09-12T13:42:21.010Z,13.23
2023-09-12T13:44:50.960Z,12.02
2023-09-12T13:47:23.410Z,12.88
2023-09-12T13:49:54.020Z,13.15
2023-09-12T13:52:24.840Z,12.50
2023-09-12T13:54:54.854Z,11.95
2023-09-12T13:57:25.628Z,10.45
2023-09-12T13:59:54.750Z,9.57
2023-09-12T14:02:25.375Z,9.35
2023-09-12T14:05:08.128Z,8.25
2023-09-12T14:07:42.900Z,8.68
2023-09-12T14:10:20.058Z,7.10
2023-09-12T14:12:58.156Z,8.48
2023-09-12T14:15:29.729Z,8.60
2023-09-12T14:17:59.124Z,8.15
2023-09-12T14:20:28.380Z,7.57
2023-09-12T14:22:59.399Z,7.95
2023-09-12T14:25:30.263Z,7.32
2023-09-12T14:27:59.721Z,8.02
2023-09-12T14:30:35.968Z,8.85
2023-09-12T14:33:05.886Z,9.02
2023-09-12T14:35:34.989Z,9.32
2023-09-12T14:38:05.737Z,10.15
2023-09-12T14:40:35.296Z,10.10
2023-09-12T14:43:04.632Z,8.50
2023-09-12T14:45:35.367Z,10.95
2023-09-12T14:48:04.936Z,10.27
2023-09-12T14:50:42.072Z,10.25
2023-09-12T14:53:15.706Z,10.63
2023-09-12T14:55:45.348Z,10.30
2023-09-12T14:58:14.480Z,11.43
2023-09-12T15:00:43.640Z,11.90
2023-09-12T15:03:12.850Z,9.48
2023-09-12T15:05:41.950Z,10.20
2023-09-12T15:08:11.395Z,10.13
2023-09-12T15:10:41.911Z,9.48
2023-09-12T15:13:12.245Z,9.00
2023-09-12T15:15:41.414Z,8.90
2023-09-12T15:18:10.596Z,9.57
2023-09-12T15:20:39.742Z,9.60
2023-09-12T15:23:08.909Z,8.20
2023-09-12T15:25:38.542Z,8.95
2023-09-12T15:28:09.288Z,8.25
2023-09-12T15:30:38.560Z,8.25
2023-09-12T15:33:07.875Z,8.65
2023-09-12T15:35:37.163Z,8.50
2023-09-12T15:38:07.587Z,9.57
2023-09-12T15:40:36.815Z,8.05
2023-09-12T15:43:20.616Z,8.27
2023-09-12T15:45:54.120Z,7.63
2023-09-12T15:48:23.478Z,8.18
2023-09-12T15:50:53.065Z,8.25
2023-09-12T15:53:22.287Z,8.45
2023-09-12T15:55:53.081Z,7.97
2023-09-12T15:58:27.386Z,8.40
2023-09-12T16:00:58.834Z,7.32
2023-09-12T16:03:28.377Z,8.00
2023-09-12T16:05:57.795Z,7.15
2023-09-12T16:08:27.804Z,7.80
2023-09-12T16:10:56.985Z,8.18
2023-09-12T16:13:26.106Z,7.95
2023-09-12T16:15:55.423Z,8.85
2023-09-12T16:18:27.063Z,8.43
2023-09-12T16:20:56.389Z,8.23
2023-09-12T16:23:28.197Z,7.95
2023-09-12T16:25:57.370Z,8.52
2023-09-12T16:28:27.034Z,8.65
2023-09-12T16:30:56.832Z,8.25
2023-09-12T16:33:27.760Z,8.45
2023-09-12T16:35:57.001Z,8.43
2023-09-12T16:38:27.044Z,8.23
2023-09-12T16:40:56.451Z,8.57
2023-09-12T16:43:28.384Z,9.18
2023-09-12T16:45:59.194Z,8.35
2023-09-12T16:48:31.735Z,8.82
2023-09-12T16:51:01.148Z,8.73
2023-09-12T16:53:30.925Z,9.23
2023-09-12T16:56:00.939Z,8.38
2023-09-12T16:58:31.368Z,9.00
2023-09-12T17:01:02.492Z,9.38
2023-09-12T17:03:37.039Z,9.65
2023-09-12T17:06:10.293Z,9.52
2023-09-12T17:08:40.979Z,9.65
2023-09-12T17:11:11.834Z,9.15
2023-09-12T17:13:45.484Z,10.10
2023-09-12T17:16:16.563Z,10.00
2023-09-12T17:18:48.514Z,9.30
2023-09-12T17:21:18.665Z,9.18
2023-09-12T17:23:47.855Z,9.30
2023-09-12T17:26:17.921Z,9.38
2023-09-12T17:28:47.225Z,9.23
2023-09-12T17:31:16.432Z,9.23
2023-09-12T17:33:47.307Z,10.02
2023-09-12T17:36:16.458Z,9.05
2023-09-12T17:38:45.695Z,8.30
2023-09-12T17:41:14.901Z,8.43
2023-09-12T17:43:44.151Z,9.25
2023-09-12T17:46:13.586Z,8.85
2023-09-12T17:48:42.814Z,9.18
2023-09-12T17:51:13.456Z,8.70
2023-09-12T17:53:42.972Z,10.20
2023-09-12T17:56:12.608Z,9.20
2023-09-12T17:58:41.706Z,8.60
2023-09-12T18:01:11.124Z,10.38
2023-09-12T18:03:43.422Z,9.25
2023-09-12T18:06:14.329Z,9.23
2023-09-12T18:08:43.631Z,9.85
2023-09-12T18:11:12.879Z,9.70
2023-09-12T18:13:42.474Z,10.05
2023-09-12T18:16:15.062Z,8.93
2023-09-12T18:18:44.365Z,11.18
2023-09-12T18:21:15.233Z,11.32
2023-09-12T18:23:45.611Z,11.15
2023-09-12T18:26:15.250Z,11.38
2023-09-12T18:28:46.206Z,11.25
2023-09-12T18:31:17.002Z,11.05
2023-09-12T18:33:47.342Z,22.92
2023-09-12T18:36:18.756Z,12.68
2023-09-12T18:38:50.499Z,10.30
2023-09-12T18:41:20.697Z,10.10
2023-09-12T18:43:49.925Z,11.80
2023-09-12T18:46:19.380Z,10.25
2023-09-12T18:48:48.716Z,10.68
2023-09-12T18:51:19.340Z,10.98
2023-09-12T18:53:48.664Z,11.60
2023-09-12T18:56:17.882Z,11.35
2023-09-12T18:58:47.035Z,11.10
2023-09-12T19:01:16.406Z,11.88
2023-09-12T19:03:46.022Z,11.23
2023-09-12T19:06:15.523Z,10.88
2023-09-12T19:08:46.019Z,12.57
2023-09-12T19:11:16.915Z,12.13
2023-09-12T19:13:46.647Z,11.70
2023-09-12T19:16:16.201Z,11.00
2023-09-12T19:18:46.826Z,11.27
2023-09-12T19:21:16.028Z,12.13
2023-09-12T19:23:46.968Z,12.23
2023-09-12T19:26:16.144Z,12.43
2023-09-12T19:28:45.317Z,12.45
2023-09-12T19:31:14.686Z,10.75
2023-09-12T19:33:44.185Z,15.60
2023-09-12T19:36:18.287Z,16.77
2023-09-12T19:38:49.243Z,14.40
2023-09-12T19:41:18.501Z,13.20
2023-09-12T19:43:47.631Z,13.48
2023-09-12T19:46:16.920Z,12.27
2023-09-12T19:48:46.175Z,12.80
2023-09-12T19:51:16.506Z,13.00
2023-09-12T19:53:46.234Z,13.75
2023-09-12T19:56:17.147Z,12.57
2023-09-12T19:58:46.469Z,13.23
2023-09-12T20:01:15.646Z,13.60
2023-09-12T20:03:45.075Z,12.32
2023-09-12T20:06:14.556Z,14.05
2023-09-12T20:08:45.214Z,14.05
2023-09-12T20:11:15.771Z,13.57
2023-09-12T20:13:45.154Z,17.73
2023-09-12T20:16:18.357Z,15.32
2023-09-12T20:18:47.750Z,13.52
2023-09-12T20:21:17.008Z,12.25
2023-09-12T20:23:46.426Z,12.18
2023-09-12T20:26:17.288Z,11.88
2023-09-12T20:28:46.543Z,11.82
2023-09-12T20:31:15.782Z,11.20
2023-09-12T20:33:45.674Z,11.27
2023-09-12T20:36:15.421Z,12.27
2023-09-12T20:38:47.482Z,13.18
2023-09-12T20:41:18.687Z,11.63
2023-09-12T20:43:47.919Z,10.57
2023-09-12T20:46:17.316Z,9.98
2023-09-12T20:48:46.549Z,10.13
2023-09-12T20:51:16.383Z,11.68
2023-09-12T20:53:45.759Z,11.75
2023-09-12T20:56:17.142Z,11.40
2023-09-12T20:58:47.705Z,12.30
2023-09-12T21:01:16.930Z,11.63
2023-09-12T21:03:49.582Z,13.18
2023-09-12T21:06:19.693Z,12.98
2023-09-12T21:08:48.787Z,13.57
2023-09-12T21:11:19.245Z,14.07
2023-09-12T21:13:48.627Z,13.35
2023-09-12T21:16:17.924Z,12.87
2023-09-12T21:18:48.028Z,13.35
2023-09-12T21:21:17.214Z,12.20
2023-09-12T21:23:46.689Z,12.57
2023-09-12T21:26:16.247Z,13.00
2023-09-12T21:28:46.858Z,13.25
2023-09-12T21:31:16.080Z,13.60
2023-09-12T21:33:45.867Z,12.90
2023-09-12T21:36:15.237Z,14.27
2023-09-12T21:38:44.335Z,14.55
2023-09-12T21:41:13.423Z,21.13
2023-09-12T21:43:43.017Z,12.65
2023-09-12T21:46:13.758Z,10.82
2023-09-12T21:48:42.951Z,11.10
2023-09-12T21:51:12.174Z,12.20
2023-09-12T21:53:41.647Z,14.95
2023-09-12T21:56:11.004Z,13.03
2023-09-12T21:58:40.097Z,12.50
2023-09-12T22:01:10.280Z,12.90
2023-09-12T22:03:40.910Z,13.02
2023-09-12T22:06:10.130Z,11.85
2023-09-12T22:08:39.206Z,11.85
2023-09-12T22:11:08.646Z,13.50
2023-09-12T22:13:38.053Z,12.80
2023-09-12T22:16:07.427Z,13.52
2023-09-12T22:18:36.833Z,12.68
2023-09-12T22:21:10.366Z,12.05
2023-09-12T22:23:39.498Z,12.68
2023-09-12T22:26:12.276Z,13.27
2023-09-12T22:28:41.820Z,13.93
2023-09-12T22:31:12.305Z,14.00
2023-09-12T22:33:42.731Z,11.95
2023-09-12T22:36:19.462Z,12.02
2023-09-12T22:38:49.099Z,11.65
2023-09-12T22:41:18.236Z,13.20
2023-09-12T22:43:47.550Z,12.20
2023-09-12T22:46:16.789Z,12.65
2023-09-12T22:48:45.956Z,11.50
2023-09-12T22:51:16.431Z,12.63
2023-09-12T22:53:45.819Z,13.80
2023-09-12T22:56:15.243Z,14.18
2023-09-12T22:58:44.702Z,14.65
2023-09-12T23:01:13.900Z,14.68
2023-09-12T23:03:43.339Z,14.88
2023-09-12T23:06:12.765Z,14.02
2023-09-12T23:08:43.208Z,12.10
2023-09-12T23:11:12.288Z,13.50
2023-09-12T23:13:41.591Z,13.00
2023-09-12T23:16:11.076Z,13.40
2023-09-12T23:18:40.391Z,13.10
2023-09-12T23:21:09.778Z,13.80
2023-09-12T23:23:38.841Z,12.35
2023-09-12T23:26:09.313Z,10.65
2023-09-12T23:28:38.392Z,12.20
2023-09-12T23:31:07.606Z,12.57
2023-09-12T23:33:36.770Z,13.75
2023-09-12T23:36:06.357Z,16.03
2023-09-12T23:38:35.450Z,15.20
2023-09-12T23:41:04.699Z,13.98
2023-09-12T23:43:35.135Z,14.83
2023-09-12T23:46:04.330Z,14.20
2023-09-12T23:48:33.452Z,13.73
2023-09-12T23:51:08.641Z,13.93
2023-09-12T23:53:37.746Z,13.70
2023-09-12T23:56:07.422Z,14.70
2023-09-12T23:58:38.099Z,14.55
